Time;durP1;ratioP1;P1;durP2;ratioP2;P2;SDS_P1;SDS_P2;PMS_P1;PMS_P2;Temp;Humidity;BMP_temperature;BMP_pressure;BME280_temperature;BME280_humidity;BME280_pressure;Samples;Min_cycle;Max_cycle;Signal;HPM_P1;HPM_P2
2023/05/20 00:00:02;;;;;;;8.38;4.97;;;;;;;11.31;63.05;102635.19;10665042;27;20058;-73
2023/05/20 00:05:07;;;;;;;9.20;5.00;;;;;;;11.05;63.19;102637.28;10659004;27;20055;-73
2023/05/20 00:10:10;;;;;;;10.68;5.18;;;;;;;10.83;63.99;102641.66;10663261;27;20405;-73
2023/05/20 00:15:12;;;;;;;9.95;5.60;;;;;;;10.67;63.65;102640.41;10623815;27;20040;-73
2023/05/20 00:20:14;;;;;;;9.90;4.85;;;;;;;10.76;62.97;102643.63;10650621;27;20496;-73
2023/05/20 00:25:16;;;;;;;9.30;5.47;;;;;;;10.57;64.05;102640.09;10637525;27;20039;-73
2023/05/20 00:30:18;;;;;;;8.80;5.70;;;;;;;10.69;63.55;102643.75;10650562;27;20040;-73
2023/05/20 00:35:20;;;;;;;7.75;4.10;;;;;;;10.34;63.81;102635.34;10636922;27;20031;-73
2023/05/20 00:40:23;;;;;;;6.43;4.22;;;;;;;10.62;62.52;102644.91;10655061;27;20035;-73
2023/05/20 00:45:26;;;;;;;4.63;3.17;;;;;;;10.33;62.66;102641.91;10636803;27;20031;-73
2023/05/20 00:50:28;;;;;;;7.22;3.60;;;;;;;10.20;63.18;102644.78;10623841;27;20381;-73
2023/05/20 00:55:31;;;;;;;3.97;2.92;;;;;;;10.14;63.37;102645.72;10620710;27;20528;-73
2023/05/20 01:00:33;;;;;;;5.43;3.00;;;;;;;10.29;63.24;102650.84;10631540;27;20038;-73
2023/05/20 01:05:35;;;;;;;4.57;2.92;;;;;;;10.36;63.27;102649.69;10654403;27;20035;-73
2023/05/20 01:10:41;;;;;;;3.20;2.13;;;;;;;10.36;63.36;102655.16;10655902;27;20046;-73
2023/05/20 01:15:45;;;;;;;4.05;2.45;;;;;;;10.28;63.91;102660.97;10629093;27;20122;-73
2023/05/20 01:20:49;;;;;;;5.80;1.98;;;;;;;10.17;64.89;102664.44;10609711;27;20039;-73
2023/05/20 01:25:51;;;;;;;4.72;2.35;;;;;;;10.40;65.02;102670.09;10624544;27;20047;-73
2023/05/20 01:30:55;;;;;;;3.35;2.17;;;;;;;10.35;64.17;102667.22;10645240;27;20047;-73
2023/05/20 01:35:58;;;;;;;4.20;2.50;;;;;;;10.41;64.12;102673.69;10639430;27;20498;-73
2023/05/20 01:41:03;;;;;;;3.70;2.58;;;;;;;10.52;64.51;102671.00;10620775;27;20040;-73
2023/05/20 01:46:06;;;;;;;5.53;2.33;;;;;;;10.50;64.19;102664.06;10636326;27;20042;-73
2023/05/20 01:51:08;;;;;;;4.18;1.58;;;;;;;10.37;65.50;102670.56;10635812;27;20039;-73
2023/05/20 01:56:13;;;;;;;3.40;2.10;;;;;;;10.47;66.06;102681.84;10617804;27;20404;-72
2023/05/20 02:01:16;;;;;;;3.15;2.03;;;;;;;10.70;65.63;102669.28;10656299;27;20050;-72
2023/05/20 02:06:19;;;;;;;2.70;1.90;;;;;;;10.77;66.90;102681.03;10610585;27;20084;-72
2023/05/20 02:11:21;;;;;;;3.38;2.15;;;;;;;10.83;67.16;102686.44;10644687;27;20043;-72
2023/05/20 02:16:24;;;;;;;4.28;1.98;;;;;;;11.06;67.13;102687.56;10617988;27;20027;-72
2023/05/20 02:21:26;;;;;;;4.32;1.90;;;;;;;11.39;66.38;102689.81;10610087;27;20039;-73
2023/05/20 02:26:45;;;;;;;5.80;2.03;;;;;;;11.51;65.95;102690.66;10612616;27;20038;-73
2023/05/20 02:31:47;;;;;;;4.63;1.90;;;;;;;11.64;66.17;102695.94;10608954;27;20043;-73
2023/05/20 02:36:50;;;;;;;2.80;2.25;;;;;;;11.72;66.35;102694.75;10621340;27;20038;-72
2023/05/20 02:41:53;;;;;;;2.90;1.85;;;;;;;11.61;66.99;102701.06;10618593;27;20039;-73
2023/05/20 02:46:57;;;;;;;2.70;2.33;;;;;;;11.87;66.81;102705.31;10626113;27;20114;-73
2023/05/20 02:51:59;;;;;;;3.60;2.03;;;;;;;12.08;65.74;102704.69;10647892;27;20035;-72
2023/05/20 02:57:05;;;;;;;3.20;2.10;;;;;;;12.16;65.59;102711.75;10633875;27;20031;-72
2023/05/20 03:02:07;;;;;;;2.63;2.15;;;;;;;12.22;65.71;102713.53;10629741;27;20047;-73
2023/05/20 03:07:10;;;;;;;2.50;2.10;;;;;;;12.05;67.18;102707.94;10633144;27;20417;-72
2023/05/20 03:12:14;;;;;;;3.15;1.92;;;;;;;12.12;66.29;102710.53;10644095;27;20038;-72
2023/05/20 03:17:17;;;;;;;5.63;2.15;;;;;;;12.29;65.99;102719.72;10630907;27;20051;-72
2023/05/20 03:22:19;;;;;;;1.98;1.55;;;;;;;12.33;66.02;102724.53;10610391;28;20040;-72
2023/05/20 03:27:25;;;;;;;3.03;1.33;;;;;;;12.56;65.10;102731.06;10648638;27;20046;-72
2023/05/20 03:32:28;;;;;;;2.92;2.03;;;;;;;12.45;65.59;102735.50;10633459;27;20765;-73
2023/05/20 03:37:35;;;;;;;2.33;1.90;;;;;;;12.44;66.16;102731.09;10644580;27;20073;-73
2023/05/20 03:42:38;;;;;;;4.53;2.10;;;;;;;12.71;65.26;102736.91;10620968;27;20050;-73
2023/05/20 03:47:41;;;;;;;2.95;1.80;;;;;;;13.02;65.23;102738.34;10637268;27;20043;-74
2023/05/20 03:52:44;;;;;;;3.92;1.95;;;;;;;13.06;65.32;102736.75;10646580;27;20485;-74
2023/05/20 03:57:47;;;;;;;3.13;2.10;;;;;;;13.20;64.57;102737.34;10631564;27;20043;-74
2023/05/20 04:02:50;;;;;;;4.72;1.90;;;;;;;13.75;64.16;102733.88;10631257;27;20040;-74
2023/05/20 04:07:59;;;;;;;3.03;1.55;;;;;;;13.88;63.29;102730.75;10621427;27;20140;-74
2023/05/20 04:13:05;;;;;;;2.97;2.00;;;;;;;14.19;62.73;102729.28;10638347;27;20484;-73
2023/05/20 04:18:07;;;;;;;2.42;1.40;;;;;;;14.52;61.83;102733.06;10638809;27;20043;-74
2023/05/20 04:23:10;;;;;;;3.17;1.70;;;;;;;14.68;61.31;102730.25;10633824;27;20038;-74
2023/05/20 04:28:15;;;;;;;2.25;1.70;;;;;;;14.76;60.15;102734.50;10634652;27;20043;-74
2023/05/20 04:33:17;;;;;;;2.38;1.40;;;;;;;15.25;58.89;102738.03;10634869;27;20054;-73
2023/05/20 04:38:20;;;;;;;2.10;1.45;;;;;;;15.19;58.66;102736.34;10633841;27;20043;-73
2023/05/20 04:43:28;;;;;;;1.45;1.33;;;;;;;15.45;57.93;102742.13;10617271;27;20054;-73
2023/05/20 04:48:33;;;;;;;2.85;1.33;;;;;;;15.48;57.53;102727.75;10617395;27;20404;-73
2023/05/20 04:53:36;;;;;;;1.75;1.20;;;;;;;15.60;56.41;102737.56;10653142;27;20039;-73
2023/05/20 04:58:38;;;;;;;2.42;1.40;;;;;;;15.52;56.30;102737.19;10618167;27;20062;-73
2023/05/20 05:03:40;;;;;;;3.22;1.35;;;;;;;15.89;56.04;102740.84;10630394;27;20035;-73
2023/05/20 05:08:46;;;;;;;2.05;1.63;;;;;;;16.44;54.56;102738.69;10651415;27;20043;-73
2023/05/20 05:13:51;;;;;;;3.80;1.90;;;;;;;16.81;52.88;102730.28;10644153;27;20063;-73
2023/05/20 05:18:57;;;;;;;1.92;1.67;;;;;;;16.83;52.33;102747.47;10613385;27;20069;-73
2023/05/20 05:24:03;;;;;;;2.40;1.73;;;;;;;16.98;51.95;102739.22;10621568;27;20035;-74
2023/05/20 05:29:05;;;;;;;4.53;2.30;;;;;;;17.58;50.63;102732.09;10626456;27;20046;-74
2023/05/20 05:34:08;;;;;;;3.78;2.00;;;;;;;18.18;48.69;102727.59;10632145;27;20520;-74
2023/05/20 05:39:17;;;;;;;3.75;2.53;;;;;;;18.37;48.14;102727.81;10614195;27;20540;-74
2023/05/20 05:44:19;;;;;;;6.38;2.83;;;;;;;18.51;48.11;102730.84;10641959;27;20042;-74
2023/05/20 05:49:24;;;;;;;3.45;1.85;;;;;;;18.79;47.10;102729.38;10644291;27;20042;-73
2023/05/20 05:54:31;;;;;;;3.88;2.40;;;;;;;19.25;46.16;102730.72;10612094;27;20050;-74
2023/05/20 05:59:34;;;;;;;4.03;2.45;;;;;;;19.54;45.69;102735.56;10593156;27;20382;-73
2023/05/20 06:04:37;;;;;;;3.22;2.17;;;;;;;19.86;45.25;102726.66;10629898;27;20031;-73
2023/05/20 06:09:39;;;;;;;2.83;2.20;;;;;;;19.98;45.27;102724.31;10611638;27;20042;-73
2023/05/20 06:14:41;;;;;;;4.13;2.15;;;;;;;19.95;44.86;102722.09;10638607;27;20038;-73
2023/05/20 06:19:43;;;;;;;2.83;2.10;;;;;;;20.10;45.52;102727.50;10628796;27;20035;-73
2023/05/20 06:24:46;;;;;;;3.15;1.88;;;;;;;20.03;44.87;102717.84;10643851;27;20035;-74
2023/05/20 06:29:48;;;;;;;2.67;1.80;;;;;;;20.48;44.57;102727.69;10598186;27;20047;-74
2023/05/20 06:34:51;;;;;;;3.10;1.83;;;;;;;20.82;43.21;102732.25;10589538;28;20039;-74
2023/05/20 06:39:53;;;;;;;2.33;1.48;;;;;;;21.26;43.52;102724.41;10595914;27;20031;-73
2023/05/20 06:44:56;;;;;;;2.00;1.48;;;;;;;21.73;41.81;102716.91;10547635;27;20043;-72
2023/05/20 06:50:16;;;;;;;1.92;1.65;;;;;;;21.75;40.84;102714.66;10589905;28;20055;-73
2023/05/20 06:55:19;;;;;;;3.47;1.60;;;;;;;21.26;41.20;102716.03;10588503;28;20553;-73
2023/05/20 07:00:22;;;;;;;2.47;1.35;;;;;;;20.89;42.50;102722.41;10593385;28;20509;-73
2023/05/20 07:05:30;;;;;;;2.13;1.42;;;;;;;21.33;42.31;102716.44;10587661;28;20043;-73
2023/05/20 07:10:33;;;;;;;4.05;1.60;;;;;;;22.17;39.88;102709.97;10609941;28;20040;-73
2023/05/20 07:15:35;;;;;;;2.63;1.70;;;;;;;22.11;39.48;102716.81;10594495;27;20528;-72
2023/05/20 07:20:38;;;;;;;3.28;1.40;;;;;;;22.05;39.82;102718.06;10588574;27;20524;-72
2023/05/20 07:25:46;;;;;;;1.33;1.23;;;;;;;21.64;39.07;102724.34;10593778;27;20042;-72
2023/05/20 07:30:49;;;;;;;2.35;1.48;;;;;;;21.57;40.34;102715.53;10574355;27;20047;-74
2023/05/20 07:36:01;;;;;;;2.35;1.65;;;;;;;21.52;39.21;102719.25;10623112;27;20036;-73
2023/05/20 07:41:03;;;;;;;1.58;1.20;;;;;;;21.89;39.77;102712.72;10627250;27;20039;-73
2023/05/20 07:46:11;;;;;;;2.17;1.40;;;;;;;22.42;38.88;102700.25;10625046;27;20499;-73
2023/05/20 07:51:17;;;;;;;2.03;1.60;;;;;;;22.66;37.29;102709.22;10649668;27;20566;-73
2023/05/20 07:56:20;;;;;;;1.95;1.20;;;;;;;22.00;37.87;102704.13;10622107;27;20043;-72
2023/05/20 08:01:23;;;;;;;3.75;1.38;;;;;;;22.21;37.01;102708.22;10642606;27;20034;-73
2023/05/20 08:06:26;;;;;;;1.35;1.00;;;;;;;22.40;36.89;102692.19;10607872;27;20048;-72
2023/05/20 08:11:28;;;;;;;2.33;1.35;;;;;;;22.99;36.03;102689.50;10629288;27;20792;-72
2023/05/20 08:16:31;;;;;;;1.35;1.17;;;;;;;23.07;35.25;102692.34;10650507;27;20039;-72
2023/05/20 08:21:35;;;;;;;2.42;1.23;;;;;;;22.59;36.12;102685.63;10648800;27;20038;-83
2023/05/20 08:26:37;;;;;;;1.30;1.15;;;;;;;22.57;34.20;102677.56;10621794;27;20038;-72
2023/05/20 08:31:41;;;;;;;3.05;1.30;;;;;;;22.70;34.66;102684.25;10613698;27;20051;-74
2023/05/20 08:36:44;;;;;;;1.25;0.93;;;;;;;22.98;34.42;102677.47;10591735;28;20027;-73
2023/05/20 08:41:47;;;;;;;1.25;0.90;;;;;;;22.91;33.82;102674.28;10583678;28;20108;-73
2023/05/20 08:46:50;;;;;;;2.70;1.23;;;;;;;22.75;34.66;102673.78;10581514;27;20038;-72
2023/05/20 08:51:54;;;;;;;3.28;1.10;;;;;;;22.74;33.93;102671.28;10575122;28;20039;-72
2023/05/20 08:56:56;;;;;;;2.80;1.40;;;;;;;22.59;34.17;102668.84;10610310;27;20063;-72
2023/05/20 09:01:58;;;;;;;4.32;1.30;;;;;;;22.53;34.71;102674.53;10604112;28;20035;-72
2023/05/20 09:07:06;;;;;;;2.15;1.23;;;;;;;21.68;34.79;102680.66;10571418;28;20052;-72
2023/05/20 09:12:10;;;;;;;5.70;1.83;;;;;;;22.04;35.50;102668.81;10558743;28;20058;-72
2023/05/20 09:17:12;;;;;;;6.88;1.20;;;;;;;22.18;34.87;102655.69;10596650;28;20414;-72
2023/05/20 09:22:21;;;;;;;2.92;1.20;;;;;;;21.98;35.46;102666.13;10614925;28;20043;-72
2023/05/20 09:27:25;;;;;;;1.77;1.00;;;;;;;21.39;36.63;102652.16;10596748;28;20035;-72
2023/05/20 09:32:28;;;;;;;1.85;1.25;;;;;;;20.87;36.75;102660.47;10596202;28;20406;-73
2023/05/20 09:37:33;;;;;;;5.05;1.10;;;;;;;20.27;37.58;102653.72;10606760;28;20048;-72
2023/05/20 09:42:41;;;;;;;1.58;1.20;;;;;;;20.28;37.57;102656.22;10578743;28;20048;-71
2023/05/20 09:47:44;;;;;;;1.83;0.93;;;;;;;19.88;38.14;102650.00;10579031;28;20055;-71
2023/05/20 09:52:48;;;;;;;3.42;1.00;;;;;;;19.83;38.87;102649.25;10635037;27;20039;-71
2023/05/20 09:57:50;;;;;;;3.63;1.25;;;;;;;19.68;38.75;102649.41;10636455;27;20062;-71
2023/05/20 10:02:52;;;;;;;3.58;1.38;;;;;;;19.86;38.34;102648.66;10636477;27;20039;-72
2023/05/20 10:08:02;;;;;;;1.27;0.95;;;;;;;19.99;38.47;102647.94;10653991;27;20120;-71
2023/05/20 10:13:14;;;;;;;4.72;1.20;;;;;;;19.88;38.35;102646.38;10619273;27;20039;-72
2023/05/20 10:18:34;;;;;;;3.13;1.02;;;;;;;19.72;38.52;102645.72;10571978;28;20441;-72
2023/05/20 10:23:36;;;;;;;2.50;0.90;;;;;;;19.76;38.02;102644.00;10568724;28;20043;-72
2023/05/20 10:28:40;;;;;;;2.83;1.30;;;;;;;19.61;38.95;102638.56;10550118;28;20046;-72
2023/05/20 10:33:43;;;;;;;1.88;1.15;;;;;;;19.47;39.40;102635.63;10608836;28;20048;-72
2023/05/20 10:38:52;;;;;;;2.38;1.10;;;;;;;19.39;39.52;102638.22;10609929;28;20044;-72
2023/05/20 10:44:01;;;;;;;3.75;1.50;;;;;;;19.37;39.13;102634.88;10592198;28;20050;-73
2023/05/20 10:49:04;;;;;;;2.90;1.00;;;;;;;19.43;39.37;102633.72;10609439;28;20045;-72
2023/05/20 10:54:08;;;;;;;2.13;1.20;;;;;;;19.24;39.88;102626.09;10591392;28;20051;-72
2023/05/20 10:59:10;;;;;;;2.88;1.20;;;;;;;19.17;40.26;102633.94;10617103;28;20416;-73
2023/05/20 11:04:14;;;;;;;4.47;1.10;;;;;;;19.11;40.02;102634.28;10632894;28;20043;-73
2023/05/20 11:09:17;;;;;;;1.63;1.10;;;;;;;19.10;40.21;102633.47;10633388;28;20043;-73
2023/05/20 11:14:20;;;;;;;3.17;1.15;;;;;;;18.79;40.78;102629.22;10633225;28;20043;-72
2023/05/20 11:19:22;;;;;;;2.08;1.05;;;;;;;18.81;41.50;102625.03;10650870;28;20058;-72
2023/05/20 11:24:26;;;;;;;2.33;1.15;;;;;;;18.94;41.18;102629.97;10633664;28;20516;-72
2023/05/20 11:29:30;;;;;;;4.30;1.15;;;;;;;19.14;41.08;102617.00;10651492;28;20500;-72
2023/05/20 11:34:35;;;;;;;2.67;1.70;;;;;;;19.44;39.87;102616.75;10616078;28;20405;-72
2023/05/20 11:39:37;;;;;;;4.10;1.40;;;;;;;19.35;39.65;102612.91;10600307;27;20039;-74
2023/05/20 11:44:43;;;;;;;2.70;1.30;;;;;;;19.32;39.53;102607.09;10647392;28;20041;-72
2023/05/20 11:49:48;;;;;;;3.10;1.83;;;;;;;19.30;39.40;102601.00;10615614;28;20054;-72
2023/05/20 11:54:53;;;;;;;3.47;1.15;;;;;;;19.03;40.63;102598.72;10619254;27;20031;-72
2023/05/20 11:59:55;;;;;;;3.03;1.55;;;;;;;19.15;39.73;102588.88;10643716;27;20443;-73
2023/05/20 12:04:58;;;;;;;3.88;1.38;;;;;;;19.47;39.34;102585.53;10611985;27;20039;-73
2023/05/20 12:10:00;;;;;;;4.65;1.40;;;;;;;19.64;38.65;102585.09;10624258;27;20031;-73
2023/05/20 12:15:03;;;;;;;3.67;1.08;;;;;;;19.51;37.33;102571.84;10635151;27;20059;-73
2023/05/20 12:20:06;;;;;;;1.98;1.35;;;;;;;19.27;38.20;102583.78;10639408;27;20047;-73
2023/05/20 12:25:15;;;;;;;3.90;1.08;;;;;;;19.19;38.13;102576.03;10623132;27;20623;-73
2023/05/20 12:30:19;;;;;;;2.78;1.00;;;;;;;18.96;38.30;102571.25;10657532;27;20436;-73
2023/05/20 12:35:38;;;;;;;2.63;1.00;;;;;;;18.77;38.40;102565.56;10656461;27;20039;-73
2023/05/20 12:40:40;;;;;;;1.60;1.00;;;;;;;18.72;39.04;102550.84;10657543;27;20458;-73
2023/05/20 12:45:42;;;;;;;3.25;0.88;;;;;;;18.94;38.65;102556.78;10609724;27;20043;-73
2023/05/20 12:50:45;;;;;;;3.80;1.15;;;;;;;18.86;38.42;102549.06;10621960;27;20045;-73
2023/05/20 12:55:52;;;;;;;2.70;1.13;;;;;;;18.79;38.26;102560.53;10639380;27;20043;-73
2023/05/20 13:00:54;;;;;;;2.33;1.23;;;;;;;18.80;38.44;102558.56;10637273;27;20168;-72
2023/05/20 13:05:58;;;;;;;5.20;1.45;;;;;;;18.48;38.67;102557.09;10613159;28;20051;-73
2023/05/20 13:11:00;;;;;;;3.60;1.10;;;;;;;18.24;39.14;102570.03;10632593;27;20039;-73
2023/05/20 13:16:19;;;;;;;;;;;;;;;;;;;;;
2023/05/20 13:21:30;;;;;;;2.40;1.20;;;;;;;17.77;40.13;102555.50;10591591;27;20075;-73
2023/05/20 13:26:32;;;;;;;1.90;1.10;;;;;;;17.92;39.54;102564.91;10612752;28;20156;-73
2023/05/20 13:32:00;;;;;;;1.85;1.20;;;;;;;17.98;39.49;102552.63;10622358;27;20039;-73
2023/05/20 13:37:03;;;;;;;3.63;1.45;;;;;;;17.93;39.82;102558.22;10623655;27;20714;-73
2023/05/20 13:42:05;;;;;;;4.40;1.77;;;;;;;17.90;39.80;102551.28;10577436;28;20544;-73
2023/05/20 13:47:07;;;;;;;4.75;2.10;;;;;;;17.85;39.56;102562.41;10610192;27;20076;-74
2023/05/20 13:52:10;;;;;;;3.10;1.38;;;;;;;17.82;40.27;102562.16;10616951;27;20035;-75
2023/05/20 13:57:12;;;;;;;3.30;1.95;;;;;;;17.75;40.44;102549.41;10631350;27;20044;-71
2023/05/20 14:02:14;;;;;;;2.35;1.52;;;;;;;17.84;40.56;102551.59;10641329;27;20040;-72
2023/05/20 14:07:17;;;;;;;3.53;1.40;;;;;;;18.02;40.73;102542.63;10618779;27;20035;-73
2023/05/20 14:12:19;;;;;;;4.13;2.03;;;;;;;18.15;40.44;102536.44;10653927;27;20035;-72
2023/05/20 14:17:21;;;;;;;2.25;1.63;;;;;;;18.24;40.21;102518.06;10632905;27;20038;-72
2023/05/20 14:22:23;;;;;;;3.38;2.03;;;;;;;18.36;40.40;102523.25;10617884;27;20409;-73
2023/05/20 14:27:25;;;;;;;2.13;1.45;;;;;;;18.34;40.38;102519.94;10614914;27;20046;-74
2023/05/20 14:32:28;;;;;;;4.18;1.77;;;;;;;18.31;40.62;102507.44;10638585;27;20133;-73
2023/05/20 14:37:30;;;;;;;3.22;1.70;;;;;;;18.23;40.95;102516.41;10613571;27;20050;-73
2023/05/20 14:42:32;;;;;;;3.33;1.60;;;;;;;18.22;40.74;102514.75;10646134;27;20047;-72
2023/05/20 14:47:35;;;;;;;2.25;1.40;;;;;;;18.14;41.14;102511.72;10602619;27;20045;-74
2023/05/20 14:52:37;;;;;;;2.05;1.33;;;;;;;18.03;40.46;102510.94;10616494;28;20051;-72
2023/05/20 14:57:40;;;;;;;2.50;1.55;;;;;;;17.86;40.95;102507.69;10644520;28;20509;-72
2023/05/20 15:02:42;;;;;;;5.70;1.55;;;;;;;17.83;41.02;102506.31;10613974;28;20054;-73
2023/05/20 15:07:45;;;;;;;2.15;1.52;;;;;;;17.93;40.83;102502.69;10644202;28;20036;-72
2023/05/20 15:12:47;;;;;;;1.88;1.40;;;;;;;17.85;40.36;102494.91;10594927;28;20428;-73
2023/05/20 15:17:49;;;;;;;4.32;1.73;;;;;;;17.79;40.79;102499.69;10601387;28;20035;-73
2023/05/20 15:22:53;;;;;;;5.05;1.42;;;;;;;17.75;41.20;102482.75;10626287;28;20055;-72
2023/05/20 15:28:00;;;;;;;2.97;1.33;;;;;;;17.77;41.00;102486.09;10635501;28;20046;-72
2023/05/20 15:33:08;;;;;;;5.05;1.95;;;;;;;17.86;41.06;102485.47;10645882;27;20055;-73
2023/05/20 15:38:10;;;;;;;4.50;2.17;;;;;;;17.91;41.26;102485.47;10655941;27;20035;-72
2023/05/20 15:43:13;;;;;;;3.88;1.83;;;;;;;17.77;41.32;102482.47;10651533;27;20058;-72
2023/05/20 15:48:15;;;;;;;5.35;1.83;;;;;;;17.61;41.44;102473.34;10644748;27;20521;-73
2023/05/20 15:53:18;;;;;;;5.10;2.00;;;;;;;17.45;41.78;102458.69;10642838;27;20051;-71
2023/05/20 15:58:20;;;;;;;3.65;1.60;;;;;;;17.44;41.79;102464.53;10648282;27;20058;-78
2023/05/20 16:03:22;;;;;;;2.88;1.50;;;;;;;17.42;42.29;102466.75;10614895;27;20047;-77
2023/05/20 16:08:28;;;;;;;2.15;1.33;;;;;;;17.26;41.96;102462.38;10619872;27;20058;-75
2023/05/20 16:13:30;;;;;;;1.40;1.30;;;;;;;17.15;42.41;102462.38;10616225;27;20031;-76
2023/05/20 16:18:32;;;;;;;6.95;2.00;;;;;;;17.14;42.36;102469.03;10619412;27;20093;-75
2023/05/20 16:23:35;;;;;;;4.65;1.90;;;;;;;17.10;42.21;102465.19;10648556;27;20074;-73
2023/05/20 16:28:37;;;;;;;9.93;1.80;;;;;;;17.03;41.09;102474.91;10654526;27;20046;-73
2023/05/20 16:33:40;;;;;;;4.50;1.80;;;;;;;16.86;40.97;102464.94;10640440;27;20051;-73
2023/05/20 16:38:42;;;;;;;3.22;1.80;;;;;;;16.82;41.43;102466.59;10653991;27;20031;-74
2023/05/20 16:43:44;;;;;;;1.70;1.38;;;;;;;16.86;40.93;102459.41;10633153;27;20055;-77
2023/05/20 16:48:48;;;;;;;1.50;1.30;;;;;;;16.81;41.37;102464.09;10607992;27;20035;-80
2023/05/20 16:53:50;;;;;;;2.45;1.27;;;;;;;16.78;42.21;102461.91;10617306;27;20044;-76
2023/05/20 16:58:52;;;;;;;5.22;2.20;;;;;;;16.75;42.30;102460.50;10633244;27;20504;-78
2023/05/20 17:03:55;;;;;;;2.78;1.67;;;;;;;16.72;42.55;102457.47;10646748;27;20439;-75
2023/05/20 17:08:58;;;;;;;2.30;1.55;;;;;;;16.65;42.43;102457.69;10627766;27;20043;-72
2023/05/20 17:14:00;;;;;;;4.15;1.90;;;;;;;16.57;42.84;102455.50;10642266;27;20050;-74
2023/05/20 17:19:03;;;;;;;3.85;1.60;;;;;;;16.61;43.03;102455.78;10636591;27;20031;-74
2023/05/20 17:24:05;;;;;;;2.85;1.20;;;;;;;16.61;42.94;102459.38;10614443;27;20040;-77
2023/05/20 17:29:08;;;;;;;2.85;1.50;;;;;;;16.56;43.69;102457.44;10620038;27;20039;-74
2023/05/20 17:34:10;;;;;;;4.13;2.15;;;;;;;16.46;43.89;102459.38;10580883;27;20054;-76
2023/05/20 17:39:13;;;;;;;4.07;2.50;;;;;;;16.32;44.52;102456.34;10580436;27;20035;-75
2023/05/20 17:44:16;;;;;;;4.47;1.90;;;;;;;16.20;44.80;102455.75;10586590;27;20040;-76
2023/05/20 17:49:20;;;;;;;5.38;2.38;;;;;;;16.08;45.25;102452.41;10594612;28;20134;-73
2023/05/20 17:54:22;;;;;;;4.70;2.10;;;;;;;15.93;45.19;102456.78;10563820;27;20052;-73
2023/05/20 17:59:25;;;;;;;2.60;1.77;;;;;;;15.85;45.34;102460.09;10569473;27;20422;-73
2023/05/20 18:04:33;;;;;;;2.55;2.00;;;;;;;15.77;45.38;102468.94;10587697;27;20043;-72
2023/05/20 18:09:35;;;;;;;3.42;1.90;;;;;;;15.81;45.75;102472.00;10568167;27;20047;-73
2023/05/20 18:14:37;;;;;;;4.55;2.15;;;;;;;15.66;46.94;102472.78;10584854;27;20046;-76
2023/05/20 18:19:40;;;;;;;13.18;5.43;;;;;;;15.52;46.58;102471.56;10556172;28;20051;-74
2023/05/20 18:24:42;;;;;;;4.35;2.35;;;;;;;15.45;46.87;102479.31;10600151;27;20494;-72
2023/05/20 18:29:45;;;;;;;6.45;2.30;;;;;;;15.30;47.52;102475.34;10566592;27;20041;-73
2023/05/20 18:34:47;;;;;;;4.05;2.22;;;;;;;15.22;48.12;102467.53;10651538;27;20047;-73
2023/05/20 18:39:49;;;;;;;3.55;2.17;;;;;;;15.05;48.69;102459.41;10617888;27;20043;-71
2023/05/20 18:44:52;;;;;;;3.33;2.22;;;;;;;14.93;48.68;102444.97;10651598;27;20062;-73
2023/05/20 18:49:54;;;;;;;3.88;2.28;;;;;;;14.84;48.62;102448.50;10613586;27;20054;-75
2023/05/20 18:54:56;;;;;;;5.45;2.45;;;;;;;14.84;49.18;102443.81;10635322;28;20059;-71
2023/05/20 18:59:59;;;;;;;9.23;3.15;;;;;;;14.84;49.41;102449.31;10655622;27;20496;-73
2023/05/20 19:05:07;;;;;;;6.55;2.28;;;;;;;14.77;49.02;102448.75;10637981;27;20030;-72
2023/05/20 19:10:10;;;;;;;10.98;5.10;;;;;;;14.71;49.47;102445.09;10645704;27;20050;-72
2023/05/20 19:15:13;;;;;;;13.38;4.80;;;;;;;14.64;50.20;102451.94;10620085;27;20065;-72
2023/05/20 19:20:15;;;;;;;10.05;4.35;;;;;;;14.54;49.46;102444.41;10606589;27;20043;-75
2023/05/20 19:25:20;;;;;;;14.38;6.22;;;;;;;14.50;50.78;102448.78;10621072;27;20047;-73
2023/05/20 19:30:23;;;;;;;14.32;6.22;;;;;;;14.41;51.45;102444.81;10620434;27;20043;-74
2023/05/20 19:35:25;;;;;;;19.77;9.55;;;;;;;14.40;52.32;102448.66;10545932;27;20051;-76
2023/05/20 19:40:27;;;;;;;16.65;8.50;;;;;;;14.25;52.40;102445.78;10573645;28;20425;-73
2023/05/20 19:45:29;;;;;;;22.77;11.77;;;;;;;14.09;53.28;102445.63;10585960;27;20043;-72
2023/05/20 19:50:32;;;;;;;15.10;8.75;;;;;;;14.05;52.98;102447.22;10580243;27;20044;-76
2023/05/20 19:55:35;;;;;;;23.80;11.60;;;;;;;14.11;53.76;102442.59;10590196;28;20040;-76
2023/05/20 20:00:37;;;;;;;10.48;5.45;;;;;;;14.17;51.84;102453.44;10581701;27;20044;-76
2023/05/20 20:05:44;;;;;;;11.77;5.28;;;;;;;14.17;52.78;102453.44;10575805;27;20043;-73
2023/05/20 20:10:48;;;;;;;;;;;;;;;14.28;51.76;102450.78;10569355;28;20052;-73
2023/05/20 20:15:50;;;;;;;11.60;5.50;;;;;;;14.32;51.28;102454.66;10591133;27;19926;-73
2023/05/20 20:20:52;;;;;;;9.15;5.57;;;;;;;14.35;51.61;102452.22;10575367;27;20038;-73
2023/05/20 20:25:55;;;;;;;10.10;6.05;;;;;;;14.33;51.36;102453.56;10605844;27;20039;-73
2023/05/20 20:30:57;;;;;;;16.77;8.35;;;;;;;14.29;53.99;102458.78;10590040;27;20046;-70
2023/05/20 20:36:00;;;;;;;17.45;9.45;;;;;;;14.15;54.38;102463.91;10592554;28;20036;-70
2023/05/20 20:41:02;;;;;;;20.98;8.68;;;;;;;14.02;55.42;102464.31;10573910;28;20039;-72
2023/05/20 20:46:05;;;;;;;13.65;6.43;;;;;;;14.06;54.54;102464.66;10575656;28;20032;-71
2023/05/20 20:51:16;;;;;;;11.63;6.50;;;;;;;13.96;55.13;102470.03;10591908;28;20494;-71
2023/05/20 20:56:18;;;;;;;12.18;5.93;;;;;;;13.77;55.77;102466.78;10560300;28;20039;-70
2023/05/20 21:01:20;;;;;;;12.40;5.63;;;;;;;13.44;56.45;102459.50;10597465;27;20040;-71
2023/05/20 21:06:23;;;;;;;10.32;4.82;;;;;;;13.37;56.12;102458.84;10583058;27;20547;-71
2023/05/20 21:11:26;;;;;;;11.85;5.95;;;;;;;13.37;57.09;102465.19;10612978;28;20043;-71
2023/05/20 21:16:28;;;;;;;14.80;6.47;;;;;;;13.40;58.36;102467.44;10612605;27;20516;-71
2023/05/20 21:21:31;;;;;;;12.73;6.82;;;;;;;13.42;57.72;102468.03;10605471;28;20035;-73
2023/05/20 21:26:33;;;;;;;14.70;6.95;;;;;;;13.41;58.29;102468.28;10592850;28;20049;-74
2023/05/20 21:31:35;;;;;;;15.43;7.60;;;;;;;13.32;60.12;102465.13;10575420;27;20043;-74
2023/05/20 21:36:37;;;;;;;14.15;6.43;;;;;;;13.27;60.63;102456.78;10609333;28;20043;-73
2023/05/20 21:41:39;;;;;;;10.00;6.60;;;;;;;13.26;60.56;102461.47;10590932;27;20036;-73
2023/05/20 21:46:42;;;;;;;16.88;6.13;;;;;;;13.25;60.80;102453.44;10572203;28;20043;-71
2023/05/20 21:51:44;;;;;;;13.70;7.18;;;;;;;13.32;60.88;102453.25;10610683;27;20422;-72
2023/05/20 21:56:46;;;;;;;11.32;5.85;;;;;;;13.34;60.80;102451.06;10606122;28;20610;-72
2023/05/20 22:01:49;;;;;;;15.77;6.28;;;;;;;13.36;60.04;102446.97;10591019;28;20498;-72
2023/05/20 22:06:53;;;;;;;14.63;7.20;;;;;;;13.39;60.39;102443.72;10591889;28;20036;-72
2023/05/20 22:11:55;;;;;;;19.58;7.60;;;;;;;13.35;60.90;102439.78;10612813;27;20048;-70
2023/05/20 22:16:57;;;;;;;10.38;6.50;;;;;;;13.31;61.59;102449.66;10558347;28;20512;-71
2023/05/20 22:21:59;;;;;;;9.70;6.05;;;;;;;13.35;60.50;102449.97;10573321;28;20051;-71
2023/05/20 22:27:03;;;;;;;14.13;7.50;;;;;;;13.33;62.14;102449.41;10583767;28;20551;-70
2023/05/20 22:32:07;;;;;;;16.08;7.85;;;;;;;13.31;62.18;102444.16;10582418;27;20053;-71
2023/05/20 22:37:10;;;;;;;15.70;8.30;;;;;;;13.27;63.79;102448.50;10610885;27;20035;-72
2023/05/20 22:42:12;;;;;;;16.60;8.02;;;;;;;13.22;64.28;102442.94;10652091;27;20035;-71
2023/05/20 22:47:15;;;;;;;19.10;9.30;;;;;;;13.19;63.75;102448.94;10641316;27;20042;-71
2023/05/20 22:52:17;;;;;;;11.65;7.80;;;;;;;13.22;64.83;102445.69;10618193;27;20054;-72
2023/05/20 22:57:19;;;;;;;13.52;8.50;;;;;;;13.14;65.48;102451.59;10630955;27;20036;-72
2023/05/20 23:02:24;;;;;;;16.60;8.27;;;;;;;13.09;65.28;102437.75;10668798;27;20492;-72
2023/05/20 23:07:28;;;;;;;13.85;8.10;;;;;;;13.09;66.32;102435.00;10658124;27;20845;-72
2023/05/20 23:12:30;;;;;;;12.55;7.88;;;;;;;13.18;66.53;102436.25;10644571;28;20039;-72